sensor_id;sensor_type;location;lat;lon;timestamp;temperature;humidity
22418;DHT22;11376;50.932;4.442;2022-07-22T00:01:51;19.00;99.90
22418;DHT22;11376;50.932;4.442;2022-07-22T00:04:16;19.00;99.90
22418;DHT22;11376;50.932;4.442;2022-07-22T00:06:42;18.90;99.90
22418;DHT22;11376;50.932;4.442;2022-07-22T00:09:08;18.90;99.90
22418;DHT22;11376;50.932;4.442;2022-07-22T00:11:34;18.80;99.90
22418;DHT22;11376;50.932;4.442;2022-07-22T00:14:00;18.80;99.90
22418;DHT22;11376;50.932;4.442;2022-07-22T00:16:25;18.80;99.90
22418;DHT22;11376;50.932;4.442;2022-07-22T00:18:51;18.80;99.90
22418;DHT22;11376;50.932;4.442;2022-07-22T00:21:17;18.70;99.90
22418;DHT22;11376;50.932;4.442;2022-07-22T00:23:43;18.70;99.90
22418;DHT22;11376;50.932;4.442;2022-07-22T00:26:09;18.60;99.90
22418;DHT22;11376;50.932;4.442;2022-07-22T00:28:35;18.60;99.90
22418;DHT22;11376;50.932;4.442;2022-07-22T00:31:01;18.60;99.90
22418;DHT22;11376;50.932;4.442;2022-07-22T00:33:26;18.50;99.90
22418;DHT22;11376;50.932;4.442;2022-07-22T00:35:52;18.50;99.90
22418;DHT22;11376;50.932;4.442;2022-07-22T00:38:18;18.50;99.90
22418;DHT22;11376;50.932;4.442;2022-07-22T00:40:43;18.50;99.90
22418;DHT22;11376;50.932;4.442;2022-07-22T00:43:09;18.40;99.90
22418;DHT22;11376;50.932;4.442;2022-07-22T00:45:35;18.40;99.90
22418;DHT22;11376;50.932;4.442;2022-07-22T00:48:00;18.40;99.90
22418;DHT22;11376;50.932;4.442;2022-07-22T00:50:26;18.40;99.90
22418;DHT22;11376;50.932;4.442;2022-07-22T00:52:52;18.40;99.90
22418;DHT22;11376;50.932;4.442;2022-07-22T00:55:18;18.40;99.90
22418;DHT22;11376;50.932;4.442;2022-07-22T00:57:43;18.30;99.90
22418;DHT22;11376;50.932;4.442;2022-07-22T01:00:13;18.30;99.90
22418;DHT22;11376;50.932;4.442;2022-07-22T01:02:39;18.30;99.90
22418;DHT22;11376;50.932;4.442;2022-07-22T01:05:05;18.30;99.90
22418;DHT22;11376;50.932;4.442;2022-07-22T01:07:31;18.20;99.90
22418;DHT22;11376;50.932;4.442;2022-07-22T01:09:57;18.20;99.90
22418;DHT22;11376;50.932;4.442;2022-07-22T01:12:23;18.20;99.90
22418;DHT22;11376;50.932;4.442;2022-07-22T01:14:48;18.20;99.90
22418;DHT22;11376;50.932;4.442;2022-07-22T01:17:14;18.20;99.90
22418;DHT22;11376;50.932;4.442;2022-07-22T01:19:40;18.20;99.90
22418;DHT22;11376;50.932;4.442;2022-07-22T01:22:06;18.10;99.90
22418;DHT22;11376;50.932;4.442;2022-07-22T01:24:32;18.10;99.90
22418;DHT22;11376;50.932;4.442;2022-07-22T01:26:59;18.10;99.90
22418;DHT22;11376;50.932;4.442;2022-07-22T01:29:24;18.10;99.90
22418;DHT22;11376;50.932;4.442;2022-07-22T01:31:50;18.00;99.90
22418;DHT22;11376;50.932;4.442;2022-07-22T01:34:16;18.00;99.90
22418;DHT22;11376;50.932;4.442;2022-07-22T01:36:42;18.00;99.90
22418;DHT22;11376;50.932;4.442;2022-07-22T01:39:07;18.00;99.90
22418;DHT22;11376;50.932;4.442;2022-07-22T01:41:33;17.80;99.90
22418;DHT22;11376;50.932;4.442;2022-07-22T01:43:59;17.80;99.90
22418;DHT22;11376;50.932;4.442;2022-07-22T01:46:24;17.80;99.90
22418;DHT22;11376;50.932;4.442;2022-07-22T01:48:51;17.80;99.90
22418;DHT22;11376;50.932;4.442;2022-07-22T01:51:18;17.80;99.90
22418;DHT22;11376;50.932;4.442;2022-07-22T01:53:44;17.80;99.90
22418;DHT22;11376;50.932;4.442;2022-07-22T01:56:09;17.80;99.90
22418;DHT22;11376;50.932;4.442;2022-07-22T01:58:35;17.80;99.90
22418;DHT22;11376;50.932;4.442;2022-07-22T02:01:01;17.70;99.90
22418;DHT22;11376;50.932;4.442;2022-07-22T02:03:26;17.70;99.90
22418;DHT22;11376;50.932;4.442;2022-07-22T02:05:52;17.60;99.90
22418;DHT22;11376;50.932;4.442;2022-07-22T02:08:17;17.60;99.90
22418;DHT22;11376;50.932;4.442;2022-07-22T02:10:44;17.60;99.90
22418;DHT22;11376;50.932;4.442;2022-07-22T02:13:10;17.60;99.90
22418;DHT22;11376;50.932;4.442;2022-07-22T02:15:35;17.50;99.90
22418;DHT22;11376;50.932;4.442;2022-07-22T02:18:13;17.50;99.90
22418;DHT22;11376;50.932;4.442;2022-07-22T02:20:39;17.50;99.90
22418;DHT22;11376;50.932;4.442;2022-07-22T02:23:05;17.40;99.90
22418;DHT22;11376;50.932;4.442;2022-07-22T02:25:31;17.30;99.90
22418;DHT22;11376;50.932;4.442;2022-07-22T02:27:56;17.20;99.90
22418;DHT22;11376;50.932;4.442;2022-07-22T02:30:22;17.10;99.90
22418;DHT22;11376;50.932;4.442;2022-07-22T02:32:47;17.00;99.90
22418;DHT22;11376;50.932;4.442;2022-07-22T02:35:13;16.90;99.90
22418;DHT22;11376;50.932;4.442;2022-07-22T02:37:39;16.90;99.90
22418;DHT22;11376;50.932;4.442;2022-07-22T02:40:05;16.80;99.90
22418;DHT22;11376;50.932;4.442;2022-07-22T02:42:31;16.70;99.90
22418;DHT22;11376;50.932;4.442;2022-07-22T02:44:57;16.70;99.90
22418;DHT22;11376;50.932;4.442;2022-07-22T02:47:23;16.60;99.90
22418;DHT22;11376;50.932;4.442;2022-07-22T02:49:48;16.60;99.90
22418;DHT22;11376;50.932;4.442;2022-07-22T02:52:14;16.60;99.90
22418;DHT22;11376;50.932;4.442;2022-07-22T02:54:39;16.50;99.90
22418;DHT22;11376;50.932;4.442;2022-07-22T02:57:05;16.50;99.90
22418;DHT22;11376;50.932;4.442;2022-07-22T02:59:30;16.40;99.90
22418;DHT22;11376;50.932;4.442;2022-07-22T03:01:56;16.40;99.90
22418;DHT22;11376;50.932;4.442;2022-07-22T03:04:22;16.40;99.90
22418;DHT22;11376;50.932;4.442;2022-07-22T03:06:48;16.30;99.90
22418;DHT22;11376;50.932;4.442;2022-07-22T03:09:14;16.30;99.90
22418;DHT22;11376;50.932;4.442;2022-07-22T03:11:39;16.30;99.90
22418;DHT22;11376;50.932;4.442;2022-07-22T03:14:05;16.30;99.90
22418;DHT22;11376;50.932;4.442;2022-07-22T03:16:30;16.30;99.90
22418;DHT22;11376;50.932;4.442;2022-07-22T03:18:56;16.20;99.90
22418;DHT22;11376;50.932;4.442;2022-07-22T03:21:22;16.20;99.90
22418;DHT22;11376;50.932;4.442;2022-07-22T03:23:47;16.20;99.90
22418;DHT22;11376;50.932;4.442;2022-07-22T03:26:21;16.20;99.90
22418;DHT22;11376;50.932;4.442;2022-07-22T03:28:47;16.20;99.90
22418;DHT22;11376;50.932;4.442;2022-07-22T03:31:13;16.10;99.90
22418;DHT22;11376;50.932;4.442;2022-07-22T03:33:39;16.10;99.90
22418;DHT22;11376;50.932;4.442;2022-07-22T03:36:04;16.10;99.90
22418;DHT22;11376;50.932;4.442;2022-07-22T03:38:36;16.10;99.90
22418;DHT22;11376;50.932;4.442;2022-07-22T03:41:02;16.20;99.90
22418;DHT22;11376;50.932;4.442;2022-07-22T03:43:29;16.30;99.90
22418;DHT22;11376;50.932;4.442;2022-07-22T03:45:54;16.40;99.90
22418;DHT22;11376;50.932;4.442;2022-07-22T03:48:20;16.40;99.90
22418;DHT22;11376;50.932;4.442;2022-07-22T03:50:45;16.50;99.90
22418;DHT22;11376;50.932;4.442;2022-07-22T03:53:11;16.50;99.90
22418;DHT22;11376;50.932;4.442;2022-07-22T03:55:37;16.50;99.90
22418;DHT22;11376;50.932;4.442;2022-07-22T03:58:02;16.50;99.90
22418;DHT22;11376;50.932;4.442;2022-07-22T04:00:28;16.50;99.90
22418;DHT22;11376;50.932;4.442;2022-07-22T04:02:54;16.60;99.90
22418;DHT22;11376;50.932;4.442;2022-07-22T04:05:19;16.60;99.90
22418;DHT22;11376;50.932;4.442;2022-07-22T04:07:45;16.50;99.90
22418;DHT22;11376;50.932;4.442;2022-07-22T04:10:11;16.50;99.90
22418;DHT22;11376;50.932;4.442;2022-07-22T04:12:38;16.50;99.90
22418;DHT22;11376;50.932;4.442;2022-07-22T04:15:05;16.50;99.90
22418;DHT22;11376;50.932;4.442;2022-07-22T04:17:31;16.50;99.90
22418;DHT22;11376;50.932;4.442;2022-07-22T04:19:57;16.40;99.90
22418;DHT22;11376;50.932;4.442;2022-07-22T04:22:23;16.50;99.90
22418;DHT22;11376;50.932;4.442;2022-07-22T04:24:48;16.50;99.90
22418;DHT22;11376;50.932;4.442;2022-07-22T04:27:14;16.60;99.90
22418;DHT22;11376;50.932;4.442;2022-07-22T04:29:39;16.60;99.90
22418;DHT22;11376;50.932;4.442;2022-07-22T04:32:05;16.60;99.90
22418;DHT22;11376;50.932;4.442;2022-07-22T04:34:31;16.60;99.90
22418;DHT22;11376;50.932;4.442;2022-07-22T04:36:57;16.60;99.90
22418;DHT22;11376;50.932;4.442;2022-07-22T04:39:22;16.60;99.90
22418;DHT22;11376;50.932;4.442;2022-07-22T04:41:48;16.60;99.90
22418;DHT22;11376;50.932;4.442;2022-07-22T04:44:13;16.50;99.90
22418;DHT22;11376;50.932;4.442;2022-07-22T04:46:39;16.70;99.90
22418;DHT22;11376;50.932;4.442;2022-07-22T04:49:05;16.70;99.90
22418;DHT22;11376;50.932;4.442;2022-07-22T04:51:30;16.70;99.90
22418;DHT22;11376;50.932;4.442;2022-07-22T04:53:56;16.70;99.90
22418;DHT22;11376;50.932;4.442;2022-07-22T04:56:21;16.80;99.90
22418;DHT22;11376;50.932;4.442;2022-07-22T04:58:47;16.80;99.90
22418;DHT22;11376;50.932;4.442;2022-07-22T05:01:13;16.80;99.90
22418;DHT22;11376;50.932;4.442;2022-07-22T05:03:39;16.80;99.90
22418;DHT22;11376;50.932;4.442;2022-07-22T05:06:05;16.90;99.90
22418;DHT22;11376;50.932;4.442;2022-07-22T05:08:31;16.90;99.90
22418;DHT22;11376;50.932;4.442;2022-07-22T05:10:57;17.00;99.90
22418;DHT22;11376;50.932;4.442;2022-07-22T05:13:22;17.00;99.90
22418;DHT22;11376;50.932;4.442;2022-07-22T05:15:48;17.00;99.90
22418;DHT22;11376;50.932;4.442;2022-07-22T05:18:14;17.00;99.90
22418;DHT22;11376;50.932;4.442;2022-07-22T05:20:40;17.10;99.90
22418;DHT22;11376;50.932;4.442;2022-07-22T05:23:05;17.10;99.90
22418;DHT22;11376;50.932;4.442;2022-07-22T05:25:31;17.20;99.90
22418;DHT22;11376;50.932;4.442;2022-07-22T05:27:57;17.30;99.90
22418;DHT22;11376;50.932;4.442;2022-07-22T05:30:22;17.40;99.90
22418;DHT22;11376;50.932;4.442;2022-07-22T05:32:48;17.40;99.90
22418;DHT22;11376;50.932;4.442;2022-07-22T05:35:13;17.50;99.90
22418;DHT22;11376;50.932;4.442;2022-07-22T05:37:39;17.60;99.90
22418;DHT22;11376;50.932;4.442;2022-07-22T05:40:05;17.60;99.90
22418;DHT22;11376;50.932;4.442;2022-07-22T05:42:31;17.80;99.90
22418;DHT22;11376;50.932;4.442;2022-07-22T05:44:57;17.80;99.90
22418;DHT22;11376;50.932;4.442;2022-07-22T05:47:22;17.80;99.90
22418;DHT22;11376;50.932;4.442;2022-07-22T05:49:48;17.90;99.90
22418;DHT22;11376;50.932;4.442;2022-07-22T05:52:13;18.00;99.90
22418;DHT22;11376;50.932;4.442;2022-07-22T05:54:39;18.10;99.90
22418;DHT22;11376;50.932;4.442;2022-07-22T05:57:07;18.20;99.90
22418;DHT22;11376;50.932;4.442;2022-07-22T05:59:35;18.30;99.90
22418;DHT22;11376;50.932;4.442;2022-07-22T06:02:01;18.40;99.90
22418;DHT22;11376;50.932;4.442;2022-07-22T06:04:26;18.50;99.90
22418;DHT22;11376;50.932;4.442;2022-07-22T06:06:52;18.60;99.90
22418;DHT22;11376;50.932;4.442;2022-07-22T06:09:18;18.70;99.90
22418;DHT22;11376;50.932;4.442;2022-07-22T06:11:43;18.80;99.90
22418;DHT22;11376;50.932;4.442;2022-07-22T06:14:09;18.90;99.90
22418;DHT22;11376;50.932;4.442;2022-07-22T06:16:34;19.00;99.90
22418;DHT22;11376;50.932;4.442;2022-07-22T06:19:01;19.00;99.90
22418;DHT22;11376;50.932;4.442;2022-07-22T06:21:27;19.00;99.90
22418;DHT22;11376;50.932;4.442;2022-07-22T06:23:52;19.20;99.90
22418;DHT22;11376;50.932;4.442;2022-07-22T06:26:18;19.30;99.90
22418;DHT22;11376;50.932;4.442;2022-07-22T06:28:44;19.50;99.90
22418;DHT22;11376;50.932;4.442;2022-07-22T06:31:09;19.60;99.90
22418;DHT22;11376;50.932;4.442;2022-07-22T06:33:35;19.70;99.90
22418;DHT22;11376;50.932;4.442;2022-07-22T06:36:01;19.80;99.90
22418;DHT22;11376;50.932;4.442;2022-07-22T06:38:27;19.90;99.90
22418;DHT22;11376;50.932;4.442;2022-07-22T06:40:52;19.90;99.90
22418;DHT22;11376;50.932;4.442;2022-07-22T06:43:18;20.00;99.90
22418;DHT22;11376;50.932;4.442;2022-07-22T06:45:43;20.10;99.90
22418;DHT22;11376;50.932;4.442;2022-07-22T06:48:09;20.10;99.90
22418;DHT22;11376;50.932;4.442;2022-07-22T06:50:35;20.20;99.90
22418;DHT22;11376;50.932;4.442;2022-07-22T06:53:00;20.10;99.90
22418;DHT22;11376;50.932;4.442;2022-07-22T06:55:26;20.20;99.90
22418;DHT22;11376;50.932;4.442;2022-07-22T06:57:51;20.30;99.90
22418;DHT22;11376;50.932;4.442;2022-07-22T07:00:17;20.40;99.90
22418;DHT22;11376;50.932;4.442;2022-07-22T07:02:44;20.60;99.90
22418;DHT22;11376;50.932;4.442;2022-07-22T07:05:10;20.80;99.90
22418;DHT22;11376;50.932;4.442;2022-07-22T07:07:36;21.00;99.90
22418;DHT22;11376;50.932;4.442;2022-07-22T07:10:02;21.20;99.90
22418;DHT22;11376;50.932;4.442;2022-07-22T07:12:27;21.40;99.90
22418;DHT22;11376;50.932;4.442;2022-07-22T07:14:53;21.60;99.90
22418;DHT22;11376;50.932;4.442;2022-07-22T07:17:19;21.80;99.90
22418;DHT22;11376;50.932;4.442;2022-07-22T07:19:44;22.00;99.90
22418;DHT22;11376;50.932;4.442;2022-07-22T07:22:10;22.20;99.90
22418;DHT22;11376;50.932;4.442;2022-07-22T07:24:35;22.50;99.90
22418;DHT22;11376;50.932;4.442;2022-07-22T07:27:01;22.80;99.90
22418;DHT22;11376;50.932;4.442;2022-07-22T07:29:26;23.10;99.90
22418;DHT22;11376;50.932;4.442;2022-07-22T07:31:52;23.40;99.90
22418;DHT22;11376;50.932;4.442;2022-07-22T07:34:18;23.60;99.90
22418;DHT22;11376;50.932;4.442;2022-07-22T07:36:43;23.70;99.90
22418;DHT22;11376;50.932;4.442;2022-07-22T07:39:09;23.80;99.90
22418;DHT22;11376;50.932;4.442;2022-07-22T07:41:34;23.90;99.90
22418;DHT22;11376;50.932;4.442;2022-07-22T07:44:00;24.00;99.90
22418;DHT22;11376;50.932;4.442;2022-07-22T07:46:25;24.00;99.90
22418;DHT22;11376;50.932;4.442;2022-07-22T07:48:51;24.20;99.90
22418;DHT22;11376;50.932;4.442;2022-07-22T07:51:17;24.30;99.90
22418;DHT22;11376;50.932;4.442;2022-07-22T07:53:42;24.30;99.90
22418;DHT22;11376;50.932;4.442;2022-07-22T07:56:09;24.40;99.90
22418;DHT22;11376;50.932;4.442;2022-07-22T07:58:34;24.50;99.90
22418;DHT22;11376;50.932;4.442;2022-07-22T08:01:00;24.60;99.90
22418;DHT22;11376;50.932;4.442;2022-07-22T08:03:25;24.80;99.90
22418;DHT22;11376;50.932;4.442;2022-07-22T08:05:51;24.80;99.90
22418;DHT22;11376;50.932;4.442;2022-07-22T08:08:17;24.90;99.90
22418;DHT22;11376;50.932;4.442;2022-07-22T08:10:43;25.00;99.90
22418;DHT22;11376;50.932;4.442;2022-07-22T08:13:08;25.00;99.90
22418;DHT22;11376;50.932;4.442;2022-07-22T08:15:34;24.90;99.90
22418;DHT22;11376;50.932;4.442;2022-07-22T08:18:00;24.90;99.90
22418;DHT22;11376;50.932;4.442;2022-07-22T08:20:27;24.90;99.90
22418;DHT22;11376;50.932;4.442;2022-07-22T08:22:53;24.70;99.90
22418;DHT22;11376;50.932;4.442;2022-07-22T08:25:19;24.70;99.90
22418;DHT22;11376;50.932;4.442;2022-07-22T08:27:45;24.80;99.90
22418;DHT22;11376;50.932;4.442;2022-07-22T08:30:11;25.00;99.90
22418;DHT22;11376;50.932;4.442;2022-07-22T08:32:37;25.10;99.90
22418;DHT22;11376;50.932;4.442;2022-07-22T08:35:03;25.30;99.90
22418;DHT22;11376;50.932;4.442;2022-07-22T08:37:29;25.50;99.90
22418;DHT22;11376;50.932;4.442;2022-07-22T08:39:55;25.70;99.90
22418;DHT22;11376;50.932;4.442;2022-07-22T08:42:22;25.80;99.90
22418;DHT22;11376;50.932;4.442;2022-07-22T08:44:48;26.00;99.90
22418;DHT22;11376;50.932;4.442;2022-07-22T08:47:14;26.20;99.90
22418;DHT22;11376;50.932;4.442;2022-07-22T08:49:39;26.10;99.90
22418;DHT22;11376;50.932;4.442;2022-07-22T08:52:06;26.20;99.90
22418;DHT22;11376;50.932;4.442;2022-07-22T08:54:32;26.30;99.90
22418;DHT22;11376;50.932;4.442;2022-07-22T08:56:57;26.50;99.90
22418;DHT22;11376;50.932;4.442;2022-07-22T08:59:23;26.70;99.90
22418;DHT22;11376;50.932;4.442;2022-07-22T09:02:08;26.70;99.90
22418;DHT22;11376;50.932;4.442;2022-07-22T09:05:02;26.70;99.90
22418;DHT22;11376;50.932;4.442;2022-07-22T09:07:36;26.90;99.90
22418;DHT22;11376;50.932;4.442;2022-07-22T09:10:05;27.10;99.90
22418;DHT22;11376;50.932;4.442;2022-07-22T09:12:31;27.30;99.90
22418;DHT22;11376;50.932;4.442;2022-07-22T09:14:59;27.60;99.90
22418;DHT22;11376;50.932;4.442;2022-07-22T09:17:36;28.00;99.90
22418;DHT22;11376;50.932;4.442;2022-07-22T09:20:14;28.20;99.90
22418;DHT22;11376;50.932;4.442;2022-07-22T09:22:43;28.30;99.90
22418;DHT22;11376;50.932;4.442;2022-07-22T09:27:48;28.80;99.90
22418;DHT22;11376;50.932;4.442;2022-07-22T09:30:23;29.00;99.90
22418;DHT22;11376;50.932;4.442;2022-07-22T09:32:49;29.20;99.90
22418;DHT22;11376;50.932;4.442;2022-07-22T09:35:15;29.30;99.60
22418;DHT22;11376;50.932;4.442;2022-07-22T09:37:48;29.50;98.70
22418;DHT22;11376;50.932;4.442;2022-07-22T09:40:15;29.80;97.60
22418;DHT22;11376;50.932;4.442;2022-07-22T09:42:51;29.80;96.60
22418;DHT22;11376;50.932;4.442;2022-07-22T09:45:19;29.90;96.20
22418;DHT22;11376;50.932;4.442;2022-07-22T09:47:45;30.00;96.20
22418;DHT22;11376;50.932;4.442;2022-07-22T09:50:16;30.00;95.60
22418;DHT22;11376;50.932;4.442;2022-07-22T09:52:43;30.20;95.60
22418;DHT22;11376;50.932;4.442;2022-07-22T09:55:08;30.20;95.70
22418;DHT22;11376;50.932;4.442;2022-07-22T09:57:34;30.30;94.70
22418;DHT22;11376;50.932;4.442;2022-07-22T10:00:00;30.20;94.30
22418;DHT22;11376;50.932;4.442;2022-07-22T10:02:27;30.10;94.20
22418;DHT22;11376;50.932;4.442;2022-07-22T10:04:54;30.10;94.00
22418;DHT22;11376;50.932;4.442;2022-07-22T10:07:22;30.30;93.40
22418;DHT22;11376;50.932;4.442;2022-07-22T10:09:48;30.30;93.60
22418;DHT22;11376;50.932;4.442;2022-07-22T10:12:15;30.10;93.50
22418;DHT22;11376;50.932;4.442;2022-07-22T10:14:41;29.90;93.20
22418;DHT22;11376;50.932;4.442;2022-07-22T10:17:08;29.90;93.00
22418;DHT22;11376;50.932;4.442;2022-07-22T10:19:34;29.80;93.40
22418;DHT22;11376;50.932;4.442;2022-07-22T10:22:00;29.80;93.50
22418;DHT22;11376;50.932;4.442;2022-07-22T10:24:25;29.90;93.40
22418;DHT22;11376;50.932;4.442;2022-07-22T10:26:53;30.00;93.70
22418;DHT22;11376;50.932;4.442;2022-07-22T10:51:24;31.30;90.00
22418;DHT22;11376;50.932;4.442;2022-07-22T10:53:55;31.20;90.20
22418;DHT22;11376;50.932;4.442;2022-07-22T10:56:35;31.50;90.30
22418;DHT22;11376;50.932;4.442;2022-07-22T10:59:10;31.90;89.30
22418;DHT22;11376;50.932;4.442;2022-07-22T11:01:43;32.40;88.00
22418;DHT22;11376;50.932;4.442;2022-07-22T11:04:22;32.90;86.00
22418;DHT22;11376;50.932;4.442;2022-07-22T11:06:50;33.20;84.40
22418;DHT22;11376;50.932;4.442;2022-07-22T11:09:18;33.50;83.00
22418;DHT22;11376;50.932;4.442;2022-07-22T11:11:50;33.60;82.00
22418;DHT22;11376;50.932;4.442;2022-07-22T11:14:18;33.70;80.80
22418;DHT22;11376;50.932;4.442;2022-07-22T11:16:47;33.90;80.00
22418;DHT22;11376;50.932;4.442;2022-07-22T11:19:12;34.10;78.30
22418;DHT22;11376;50.932;4.442;2022-07-22T11:21:38;34.20;77.00
22418;DHT22;11376;50.932;4.442;2022-07-22T11:24:06;34.50;76.30
22418;DHT22;11376;50.932;4.442;2022-07-22T11:26:44;35.30;74.50
22418;DHT22;11376;50.932;4.442;2022-07-22T11:29:33;36.20;70.50
22418;DHT22;11376;50.932;4.442;2022-07-22T11:32:00;36.60;68.60
22418;DHT22;11376;50.932;4.442;2022-07-22T11:34:26;37.00;66.40
22418;DHT22;11376;50.932;4.442;2022-07-22T11:36:54;37.60;63.30
22418;DHT22;11376;50.932;4.442;2022-07-22T11:39:23;38.00;62.00
22418;DHT22;11376;50.932;4.442;2022-07-22T11:41:50;38.40;59.30
22418;DHT22;11376;50.932;4.442;2022-07-22T11:44:21;38.70;57.60
22418;DHT22;11376;50.932;4.442;2022-07-22T11:46:47;38.60;57.00
22418;DHT22;11376;50.932;4.442;2022-07-22T11:49:15;38.50;56.90
22418;DHT22;11376;50.932;4.442;2022-07-22T11:51:42;38.30;56.50
22418;DHT22;11376;50.932;4.442;2022-07-22T11:54:08;37.90;56.10
22418;DHT22;11376;50.932;4.442;2022-07-22T11:56:34;37.40;57.20
22418;DHT22;11376;50.932;4.442;2022-07-22T11:59:00;37.10;57.60
22418;DHT22;11376;50.932;4.442;2022-07-22T12:01:31;36.90;58.00
22418;DHT22;11376;50.932;4.442;2022-07-22T12:03:59;36.70;57.60
22418;DHT22;11376;50.932;4.442;2022-07-22T12:06:27;36.50;57.50
22418;DHT22;11376;50.932;4.442;2022-07-22T12:11:35;36.10;57.70
22418;DHT22;11376;50.932;4.442;2022-07-22T12:14:07;36.00;58.30
22418;DHT22;11376;50.932;4.442;2022-07-22T12:16:34;35.70;58.30
22418;DHT22;11376;50.932;4.442;2022-07-22T12:21:29;35.40;58.90
22418;DHT22;11376;50.932;4.442;2022-07-22T12:23:59;35.50;59.00
22418;DHT22;11376;50.932;4.442;2022-07-22T12:26:38;35.60;58.90
22418;DHT22;11376;50.932;4.442;2022-07-22T12:29:23;36.00;59.20
22418;DHT22;11376;50.932;4.442;2022-07-22T12:32:00;36.70;58.10
22418;DHT22;11376;50.932;4.442;2022-07-22T12:37:21;36.80;56.00
22418;DHT22;11376;50.932;4.442;2022-07-22T12:45:30;36.30;56.10
22418;DHT22;11376;50.932;4.442;2022-07-22T12:53:07;35.30;58.00
22418;DHT22;11376;50.932;4.442;2022-07-22T12:55:35;35.10;58.40
22418;DHT22;11376;50.932;4.442;2022-07-22T12:58:02;35.20;58.60
22418;DHT22;11376;50.932;4.442;2022-07-22T13:00:31;35.60;58.00
22418;DHT22;11376;50.932;4.442;2022-07-22T13:02:57;35.80;57.60
22418;DHT22;11376;50.932;4.442;2022-07-22T13:05:24;35.90;57.50
22418;DHT22;11376;50.932;4.442;2022-07-22T13:07:50;35.90;57.40
22418;DHT22;11376;50.932;4.442;2022-07-22T13:10:19;35.80;57.50
22418;DHT22;11376;50.932;4.442;2022-07-22T13:12:45;35.70;57.50
22418;DHT22;11376;50.932;4.442;2022-07-22T13:15:11;35.90;58.40
22418;DHT22;11376;50.932;4.442;2022-07-22T13:17:36;35.90;57.30
22418;DHT22;11376;50.932;4.442;2022-07-22T13:20:03;35.70;57.20
22418;DHT22;11376;50.932;4.442;2022-07-22T13:22:29;35.80;57.00
22418;DHT22;11376;50.932;4.442;2022-07-22T13:24:55;35.70;57.10
22418;DHT22;11376;50.932;4.442;2022-07-22T13:27:21;35.90;57.20
22418;DHT22;11376;50.932;4.442;2022-07-22T13:29:46;35.80;56.90
22418;DHT22;11376;50.932;4.442;2022-07-22T13:32:12;35.70;57.50
22418;DHT22;11376;50.932;4.442;2022-07-22T13:34:38;35.50;58.00
22418;DHT22;11376;50.932;4.442;2022-07-22T13:37:03;35.20;58.10
22418;DHT22;11376;50.932;4.442;2022-07-22T13:39:29;35.10;58.10
22418;DHT22;11376;50.932;4.442;2022-07-22T13:41:54;34.80;58.50
22418;DHT22;11376;50.932;4.442;2022-07-22T13:44:20;34.40;59.10
22418;DHT22;11376;50.932;4.442;2022-07-22T13:46:46;34.00;60.00
22418;DHT22;11376;50.932;4.442;2022-07-22T13:49:12;33.70;60.80
22418;DHT22;11376;50.932;4.442;2022-07-22T13:51:38;33.40;61.40
22418;DHT22;11376;50.932;4.442;2022-07-22T13:54:03;33.50;62.10
22418;DHT22;11376;50.932;4.442;2022-07-22T13:56:33;33.80;61.30
22418;DHT22;11376;50.932;4.442;2022-07-22T13:59:00;34.10;61.10
22418;DHT22;11376;50.932;4.442;2022-07-22T14:01:26;34.20;60.90
22418;DHT22;11376;50.932;4.442;2022-07-22T14:03:52;34.00;60.80
22418;DHT22;11376;50.932;4.442;2022-07-22T14:06:17;34.10;61.30
22418;DHT22;11376;50.932;4.442;2022-07-22T14:08:44;34.10;61.40
22418;DHT22;11376;50.932;4.442;2022-07-22T14:11:10;34.00;61.70
22418;DHT22;11376;50.932;4.442;2022-07-22T14:13:35;33.90;61.60
22418;DHT22;11376;50.932;4.442;2022-07-22T14:16:01;33.80;61.70
22418;DHT22;11376;50.932;4.442;2022-07-22T14:18:47;33.50;62.00
22418;DHT22;11376;50.932;4.442;2022-07-22T14:21:13;33.00;63.10
22418;DHT22;11376;50.932;4.442;2022-07-22T14:23:38;32.80;64.10
22418;DHT22;11376;50.932;4.442;2022-07-22T14:26:04;32.80;64.60
22418;DHT22;11376;50.932;4.442;2022-07-22T14:28:30;32.60;64.20
22418;DHT22;11376;50.932;4.442;2022-07-22T14:30:56;32.60;64.70
22418;DHT22;11376;50.932;4.442;2022-07-22T14:33:22;32.60;65.40
22418;DHT22;11376;50.932;4.442;2022-07-22T14:35:48;32.30;66.10
22418;DHT22;11376;50.932;4.442;2022-07-22T14:38:14;31.80;67.10
22418;DHT22;11376;50.932;4.442;2022-07-22T14:40:39;31.40;67.70
22418;DHT22;11376;50.932;4.442;2022-07-22T14:43:05;31.00;68.90
22418;DHT22;11376;50.932;4.442;2022-07-22T14:45:30;30.70;69.40
22418;DHT22;11376;50.932;4.442;2022-07-22T14:47:56;30.50;70.20
22418;DHT22;11376;50.932;4.442;2022-07-22T14:50:22;30.40;71.40
22418;DHT22;11376;50.932;4.442;2022-07-22T14:52:47;30.20;71.90
22418;DHT22;11376;50.932;4.442;2022-07-22T14:55:13;30.10;72.90
22418;DHT22;11376;50.932;4.442;2022-07-22T14:57:39;30.00;73.80
22418;DHT22;11376;50.932;4.442;2022-07-22T15:00:05;30.00;73.80
22418;DHT22;11376;50.932;4.442;2022-07-22T15:02:31;29.80;74.30
22418;DHT22;11376;50.932;4.442;2022-07-22T15:04:56;29.60;74.90
22418;DHT22;11376;50.932;4.442;2022-07-22T15:07:23;29.60;75.30
22418;DHT22;11376;50.932;4.442;2022-07-22T15:09:49;29.30;76.10
22418;DHT22;11376;50.932;4.442;2022-07-22T15:12:14;29.10;77.30
22418;DHT22;11376;50.932;4.442;2022-07-22T15:14:40;28.90;78.30
22418;DHT22;11376;50.932;4.442;2022-07-22T15:17:06;28.70;79.30
22418;DHT22;11376;50.932;4.442;2022-07-22T15:19:31;28.70;80.20
22418;DHT22;11376;50.932;4.442;2022-07-22T15:21:57;28.60;80.10
22418;DHT22;11376;50.932;4.442;2022-07-22T15:24:23;28.50;81.20
22418;DHT22;11376;50.932;4.442;2022-07-22T15:26:49;28.40;81.40
22418;DHT22;11376;50.932;4.442;2022-07-22T15:29:15;28.30;82.30
22418;DHT22;11376;50.932;4.442;2022-07-22T15:31:40;28.30;83.40
22418;DHT22;11376;50.932;4.442;2022-07-22T15:34:06;28.30;83.90
22418;DHT22;11376;50.932;4.442;2022-07-22T15:36:32;28.20;84.90
22418;DHT22;11376;50.932;4.442;2022-07-22T15:38:58;28.20;85.20
22418;DHT22;11376;50.932;4.442;2022-07-22T15:41:23;28.20;85.20
22418;DHT22;11376;50.932;4.442;2022-07-22T15:43:49;28.30;85.10
22418;DHT22;11376;50.932;4.442;2022-07-22T15:46:15;28.40;85.10
22418;DHT22;11376;50.932;4.442;2022-07-22T15:48:40;28.40;85.10
22418;DHT22;11376;50.932;4.442;2022-07-22T15:51:07;28.40;85.10
22418;DHT22;11376;50.932;4.442;2022-07-22T15:53:32;28.40;85.60
22418;DHT22;11376;50.932;4.442;2022-07-22T15:55:58;28.40;85.70
22418;DHT22;11376;50.932;4.442;2022-07-22T15:58:24;28.30;85.00
22418;DHT22;11376;50.932;4.442;2022-07-22T16:01:08;28.30;85.20
22418;DHT22;11376;50.932;4.442;2022-07-22T16:03:33;28.10;86.10
22418;DHT22;11376;50.932;4.442;2022-07-22T16:06:00;27.90;87.60
22418;DHT22;11376;50.932;4.442;2022-07-22T16:08:26;27.60;88.00
22418;DHT22;11376;50.932;4.442;2022-07-22T16:10:52;27.40;89.20